sensor_id;sensor_type;location;lat;lon;timestamp;temperature;humidity
47168;DHT22;32931;47.778;17.806;2023-05-29T00:01:26;19.00;92.10
47168;DHT22;32931;47.778;17.806;2023-05-29T00:03:52;19.10;92.40
47168;DHT22;32931;47.778;17.806;2023-05-29T00:06:19;19.10;92.50
47168;DHT22;32931;47.778;17.806;2023-05-29T00:08:45;19.10;92.50
47168;DHT22;32931;47.778;17.806;2023-05-29T00:11:12;19.00;92.30
47168;DHT22;32931;47.778;17.806;2023-05-29T00:13:38;19.00;92.40
47168;DHT22;32931;47.778;17.806;2023-05-29T00:16:05;19.00;92.40
47168;DHT22;32931;47.778;17.806;2023-05-29T00:18:31;19.00;92.20
47168;DHT22;32931;47.778;17.806;2023-05-29T00:20:57;19.00;92.20
47168;DHT22;32931;47.778;17.806;2023-05-29T00:23:23;18.90;92.20
47168;DHT22;32931;47.778;17.806;2023-05-29T00:25:50;18.90;92.40
47168;DHT22;32931;47.778;17.806;2023-05-29T00:28:16;18.80;92.50
47168;DHT22;32931;47.778;17.806;2023-05-29T00:30:42;18.90;92.90
47168;DHT22;32931;47.778;17.806;2023-05-29T00:33:08;18.90;92.80
47168;DHT22;32931;47.778;17.806;2023-05-29T00:35:34;18.90;92.70
47168;DHT22;32931;47.778;17.806;2023-05-29T00:38:00;18.90;92.50
47168;DHT22;32931;47.778;17.806;2023-05-29T00:40:27;18.80;92.70
47168;DHT22;32931;47.778;17.806;2023-05-29T00:42:53;18.90;92.70
47168;DHT22;32931;47.778;17.806;2023-05-29T00:45:19;18.90;92.60
47168;DHT22;32931;47.778;17.806;2023-05-29T00:47:46;18.90;92.70
47168;DHT22;32931;47.778;17.806;2023-05-29T00:50:14;18.90;92.60
47168;DHT22;32931;47.778;17.806;2023-05-29T00:52:44;18.90;92.50
47168;DHT22;32931;47.778;17.806;2023-05-29T00:55:11;18.80;92.50
47168;DHT22;32931;47.778;17.806;2023-05-29T00:57:37;18.80;92.50
47168;DHT22;32931;47.778;17.806;2023-05-29T01:00:05;18.70;92.40
47168;DHT22;32931;47.778;17.806;2023-05-29T01:02:37;18.70;92.50
47168;DHT22;32931;47.778;17.806;2023-05-29T01:05:04;18.70;92.60
47168;DHT22;32931;47.778;17.806;2023-05-29T01:07:32;18.60;92.60
47168;DHT22;32931;47.778;17.806;2023-05-29T01:09:58;18.60;92.70
47168;DHT22;32931;47.778;17.806;2023-05-29T01:12:40;18.60;93.00
47168;DHT22;32931;47.778;17.806;2023-05-29T01:15:36;18.60;93.00
47168;DHT22;32931;47.778;17.806;2023-05-29T01:18:46;18.60;93.00
47168;DHT22;32931;47.778;17.806;2023-05-29T01:24:58;18.40;92.70
47168;DHT22;32931;47.778;17.806;2023-05-29T01:27:28;18.40;93.00
47168;DHT22;32931;47.778;17.806;2023-05-29T01:29:58;18.30;92.90
47168;DHT22;32931;47.778;17.806;2023-05-29T01:32:25;18.30;93.10
47168;DHT22;32931;47.778;17.806;2023-05-29T01:34:52;18.30;93.20
47168;DHT22;32931;47.778;17.806;2023-05-29T01:37:18;18.30;93.20
47168;DHT22;32931;47.778;17.806;2023-05-29T01:39:44;18.30;93.30
47168;DHT22;32931;47.778;17.806;2023-05-29T01:42:10;18.30;93.30
47168;DHT22;32931;47.778;17.806;2023-05-29T01:44:38;18.30;93.40
47168;DHT22;32931;47.778;17.806;2023-05-29T01:47:04;18.30;93.50
47168;DHT22;32931;47.778;17.806;2023-05-29T01:49:31;18.30;93.60
47168;DHT22;32931;47.778;17.806;2023-05-29T01:51:58;18.30;93.40
47168;DHT22;32931;47.778;17.806;2023-05-29T01:54:24;18.30;93.10
47168;DHT22;32931;47.778;17.806;2023-05-29T01:56:51;18.20;93.00
47168;DHT22;32931;47.778;17.806;2023-05-29T01:59:17;18.20;93.10
47168;DHT22;32931;47.778;17.806;2023-05-29T02:01:44;18.10;93.10
47168;DHT22;32931;47.778;17.806;2023-05-29T02:04:10;18.10;93.50
47168;DHT22;32931;47.778;17.806;2023-05-29T02:06:36;18.10;93.60
47168;DHT22;32931;47.778;17.806;2023-05-29T02:09:02;18.10;93.60
47168;DHT22;32931;47.778;17.806;2023-05-29T02:11:29;18.10;93.50
47168;DHT22;32931;47.778;17.806;2023-05-29T02:13:55;18.00;93.40
47168;DHT22;32931;47.778;17.806;2023-05-29T02:16:21;18.00;93.30
47168;DHT22;32931;47.778;17.806;2023-05-29T02:18:47;17.90;94.00
47168;DHT22;32931;47.778;17.806;2023-05-29T02:21:13;17.80;94.20
47168;DHT22;32931;47.778;17.806;2023-05-29T02:23:39;17.70;94.50
47168;DHT22;32931;47.778;17.806;2023-05-29T02:26:05;17.70;94.70
47168;DHT22;32931;47.778;17.806;2023-05-29T02:28:32;17.60;94.70
47168;DHT22;32931;47.778;17.806;2023-05-29T02:30:58;17.60;94.80
47168;DHT22;32931;47.778;17.806;2023-05-29T02:33:24;17.50;94.90
47168;DHT22;32931;47.778;17.806;2023-05-29T02:35:50;17.50;95.00
47168;DHT22;32931;47.778;17.806;2023-05-29T02:38:16;17.40;95.20
47168;DHT22;32931;47.778;17.806;2023-05-29T02:40:42;17.30;95.40
47168;DHT22;32931;47.778;17.806;2023-05-29T02:43:13;17.30;95.60
47168;DHT22;32931;47.778;17.806;2023-05-29T02:45:39;17.20;95.70
47168;DHT22;32931;47.778;17.806;2023-05-29T02:48:05;17.20;96.00
47168;DHT22;32931;47.778;17.806;2023-05-29T02:50:32;17.10;96.10
47168;DHT22;32931;47.778;17.806;2023-05-29T02:52:58;17.10;96.20
47168;DHT22;32931;47.778;17.806;2023-05-29T02:55:24;17.10;96.20
47168;DHT22;32931;47.778;17.806;2023-05-29T02:57:50;17.10;96.00
47168;DHT22;32931;47.778;17.806;2023-05-29T03:00:18;17.10;96.20
47168;DHT22;32931;47.778;17.806;2023-05-29T03:02:45;17.00;96.30
47168;DHT22;32931;47.778;17.806;2023-05-29T03:05:11;17.00;96.60
47168;DHT22;32931;47.778;17.806;2023-05-29T03:07:37;16.90;96.70
47168;DHT22;32931;47.778;17.806;2023-05-29T03:10:03;17.00;96.70
47168;DHT22;32931;47.778;17.806;2023-05-29T03:12:30;16.90;96.80
47168;DHT22;32931;47.778;17.806;2023-05-29T03:14:56;16.90;96.80
47168;DHT22;32931;47.778;17.806;2023-05-29T03:17:22;16.90;96.90
47168;DHT22;32931;47.778;17.806;2023-05-29T03:19:48;16.90;97.00
47168;DHT22;32931;47.778;17.806;2023-05-29T03:22:14;16.90;97.20
47168;DHT22;32931;47.778;17.806;2023-05-29T03:24:40;16.90;97.50
47168;DHT22;32931;47.778;17.806;2023-05-29T03:27:07;17.00;97.40
47168;DHT22;32931;47.778;17.806;2023-05-29T03:29:34;17.00;97.30
47168;DHT22;32931;47.778;17.806;2023-05-29T03:32:00;17.00;97.20
47168;DHT22;32931;47.778;17.806;2023-05-29T03:34:26;17.00;97.50
47168;DHT22;32931;47.778;17.806;2023-05-29T03:36:53;17.00;97.70
47168;DHT22;32931;47.778;17.806;2023-05-29T03:39:20;17.10;97.60
47168;DHT22;32931;47.778;17.806;2023-05-29T03:41:46;17.10;97.30
47168;DHT22;32931;47.778;17.806;2023-05-29T03:44:12;17.00;97.20
47168;DHT22;32931;47.778;17.806;2023-05-29T03:46:38;17.00;97.20
47168;DHT22;32931;47.778;17.806;2023-05-29T03:49:04;16.90;97.60
47168;DHT22;32931;47.778;17.806;2023-05-29T03:51:33;16.90;97.80
47168;DHT22;32931;47.778;17.806;2023-05-29T03:53:59;16.90;98.00
47168;DHT22;32931;47.778;17.806;2023-05-29T03:56:25;16.90;98.30
47168;DHT22;32931;47.778;17.806;2023-05-29T03:58:53;16.80;98.40
47168;DHT22;32931;47.778;17.806;2023-05-29T04:01:19;16.90;98.50
47168;DHT22;32931;47.778;17.806;2023-05-29T04:03:45;16.70;98.40
47168;DHT22;32931;47.778;17.806;2023-05-29T04:06:12;16.70;98.60
47168;DHT22;32931;47.778;17.806;2023-05-29T04:08:38;16.70;98.60
47168;DHT22;32931;47.778;17.806;2023-05-29T04:11:05;16.80;98.60
47168;DHT22;32931;47.778;17.806;2023-05-29T04:13:31;16.80;98.80
47168;DHT22;32931;47.778;17.806;2023-05-29T04:15:57;16.80;98.90
47168;DHT22;32931;47.778;17.806;2023-05-29T04:18:23;16.80;98.90
47168;DHT22;32931;47.778;17.806;2023-05-29T04:20:49;16.90;98.90
47168;DHT22;32931;47.778;17.806;2023-05-29T04:23:15;17.00;98.70
47168;DHT22;32931;47.778;17.806;2023-05-29T04:25:41;17.00;98.60
47168;DHT22;32931;47.778;17.806;2023-05-29T04:28:09;17.00;98.70
47168;DHT22;32931;47.778;17.806;2023-05-29T04:30:36;17.10;98.70
47168;DHT22;32931;47.778;17.806;2023-05-29T04:33:03;17.10;98.70
47168;DHT22;32931;47.778;17.806;2023-05-29T04:35:29;17.10;98.80
47168;DHT22;32931;47.778;17.806;2023-05-29T04:37:55;17.20;98.90
47168;DHT22;32931;47.778;17.806;2023-05-29T04:40:22;17.20;99.00
47168;DHT22;32931;47.778;17.806;2023-05-29T04:42:48;17.20;99.10
47168;DHT22;32931;47.778;17.806;2023-05-29T04:45:15;17.20;99.40
47168;DHT22;32931;47.778;17.806;2023-05-29T04:47:42;17.20;99.90
47168;DHT22;32931;47.778;17.806;2023-05-29T04:50:15;17.20;99.90
47168;DHT22;32931;47.778;17.806;2023-05-29T04:52:42;17.20;99.90
47168;DHT22;32931;47.778;17.806;2023-05-29T04:55:09;17.20;99.90
47168;DHT22;32931;47.778;17.806;2023-05-29T04:57:36;17.30;99.90
47168;DHT22;32931;47.778;17.806;2023-05-29T05:00:04;17.30;99.90
47168;DHT22;32931;47.778;17.806;2023-05-29T05:02:32;17.40;99.90
47168;DHT22;32931;47.778;17.806;2023-05-29T05:04:59;17.30;99.90
47168;DHT22;32931;47.778;17.806;2023-05-29T05:07:25;17.30;99.90
47168;DHT22;32931;47.778;17.806;2023-05-29T05:09:51;17.40;99.90
47168;DHT22;32931;47.778;17.806;2023-05-29T05:12:17;17.40;99.90
47168;DHT22;32931;47.778;17.806;2023-05-29T05:14:43;17.40;99.90
47168;DHT22;32931;47.778;17.806;2023-05-29T05:17:10;17.40;99.90
47168;DHT22;32931;47.778;17.806;2023-05-29T05:19:36;17.50;99.90
47168;DHT22;32931;47.778;17.806;2023-05-29T05:22:02;17.50;99.90
47168;DHT22;32931;47.778;17.806;2023-05-29T05:24:28;17.50;99.90
47168;DHT22;32931;47.778;17.806;2023-05-29T05:26:54;17.60;99.90
47168;DHT22;32931;47.778;17.806;2023-05-29T05:29:20;17.60;99.90
47168;DHT22;32931;47.778;17.806;2023-05-29T05:31:46;17.60;99.90
47168;DHT22;32931;47.778;17.806;2023-05-29T05:34:14;17.70;99.90
47168;DHT22;32931;47.778;17.806;2023-05-29T05:36:40;17.80;99.90
47168;DHT22;32931;47.778;17.806;2023-05-29T05:39:06;17.80;99.90
47168;DHT22;32931;47.778;17.806;2023-05-29T05:41:33;17.90;99.90
47168;DHT22;32931;47.778;17.806;2023-05-29T05:43:59;18.00;99.90
47168;DHT22;32931;47.778;17.806;2023-05-29T05:46:25;18.00;99.90
47168;DHT22;32931;47.778;17.806;2023-05-29T05:48:51;18.10;99.90
47168;DHT22;32931;47.778;17.806;2023-05-29T05:51:18;18.20;99.90
47168;DHT22;32931;47.778;17.806;2023-05-29T05:53:45;18.10;99.90
47168;DHT22;32931;47.778;17.806;2023-05-29T05:56:11;18.20;99.90
47168;DHT22;32931;47.778;17.806;2023-05-29T05:58:37;18.20;99.90
47168;DHT22;32931;47.778;17.806;2023-05-29T06:01:03;18.20;99.90
47168;DHT22;32931;47.778;17.806;2023-05-29T06:03:30;18.30;99.90
47168;DHT22;32931;47.778;17.806;2023-05-29T06:05:58;18.40;99.90
47168;DHT22;32931;47.778;17.806;2023-05-29T06:08:25;18.40;99.90
47168;DHT22;32931;47.778;17.806;2023-05-29T06:10:51;18.40;99.90
47168;DHT22;32931;47.778;17.806;2023-05-29T06:13:17;18.40;99.90
47168;DHT22;32931;47.778;17.806;2023-05-29T06:15:43;18.30;99.90
47168;DHT22;32931;47.778;17.806;2023-05-29T06:18:09;18.40;99.90
47168;DHT22;32931;47.778;17.806;2023-05-29T06:20:36;18.50;99.90
47168;DHT22;32931;47.778;17.806;2023-05-29T06:23:02;18.50;99.90
47168;DHT22;32931;47.778;17.806;2023-05-29T06:25:28;18.60;99.90
47168;DHT22;32931;47.778;17.806;2023-05-29T06:28:00;18.70;99.90
47168;DHT22;32931;47.778;17.806;2023-05-29T06:30:26;18.70;99.90
47168;DHT22;32931;47.778;17.806;2023-05-29T06:32:53;18.80;99.90
47168;DHT22;32931;47.778;17.806;2023-05-29T06:35:19;18.90;99.90
47168;DHT22;32931;47.778;17.806;2023-05-29T06:37:46;18.90;99.90
47168;DHT22;32931;47.778;17.806;2023-05-29T06:40:15;19.00;99.90
47168;DHT22;32931;47.778;17.806;2023-05-29T06:42:42;18.90;99.90
47168;DHT22;32931;47.778;17.806;2023-05-29T06:45:11;19.00;99.90
47168;DHT22;32931;47.778;17.806;2023-05-29T06:47:39;19.10;99.90
47168;DHT22;32931;47.778;17.806;2023-05-29T06:50:07;19.20;99.90
47168;DHT22;32931;47.778;17.806;2023-05-29T06:52:33;19.30;99.90
47168;DHT22;32931;47.778;17.806;2023-05-29T06:55:00;19.30;99.90
47168;DHT22;32931;47.778;17.806;2023-05-29T06:57:27;19.40;99.90
47168;DHT22;32931;47.778;17.806;2023-05-29T06:59:53;19.60;99.90
47168;DHT22;32931;47.778;17.806;2023-05-29T07:02:19;19.60;99.90
47168;DHT22;32931;47.778;17.806;2023-05-29T07:04:45;19.60;99.90
47168;DHT22;32931;47.778;17.806;2023-05-29T07:07:11;19.70;99.90
47168;DHT22;32931;47.778;17.806;2023-05-29T07:09:38;19.80;99.90
47168;DHT22;32931;47.778;17.806;2023-05-29T07:12:05;19.80;99.90
47168;DHT22;32931;47.778;17.806;2023-05-29T07:14:32;19.90;99.90
47168;DHT22;32931;47.778;17.806;2023-05-29T07:16:58;19.90;99.90
47168;DHT22;32931;47.778;17.806;2023-05-29T07:19:25;20.00;99.90
47168;DHT22;32931;47.778;17.806;2023-05-29T07:21:51;20.20;99.90
47168;DHT22;32931;47.778;17.806;2023-05-29T07:24:17;20.30;99.90
47168;DHT22;32931;47.778;17.806;2023-05-29T07:26:43;20.30;99.90
47168;DHT22;32931;47.778;17.806;2023-05-29T07:29:09;20.30;99.90
47168;DHT22;32931;47.778;17.806;2023-05-29T07:31:36;20.40;99.90
47168;DHT22;32931;47.778;17.806;2023-05-29T07:34:03;20.50;99.90
47168;DHT22;32931;47.778;17.806;2023-05-29T07:36:30;20.50;99.90
47168;DHT22;32931;47.778;17.806;2023-05-29T07:38:59;20.60;99.90
47168;DHT22;32931;47.778;17.806;2023-05-29T07:41:25;20.60;99.90
47168;DHT22;32931;47.778;17.806;2023-05-29T07:43:55;20.70;99.90
47168;DHT22;32931;47.778;17.806;2023-05-29T07:46:21;20.80;99.90
47168;DHT22;32931;47.778;17.806;2023-05-29T07:48:48;20.90;99.90
47168;DHT22;32931;47.778;17.806;2023-05-29T07:51:14;21.00;99.90
47168;DHT22;32931;47.778;17.806;2023-05-29T07:53:40;21.10;99.90
47168;DHT22;32931;47.778;17.806;2023-05-29T07:56:06;21.10;99.90
47168;DHT22;32931;47.778;17.806;2023-05-29T07:58:32;21.20;99.90
47168;DHT22;32931;47.778;17.806;2023-05-29T08:00:59;21.30;99.90
47168;DHT22;32931;47.778;17.806;2023-05-29T08:03:25;21.30;99.90
47168;DHT22;32931;47.778;17.806;2023-05-29T08:05:51;21.50;99.90
47168;DHT22;32931;47.778;17.806;2023-05-29T08:08:17;21.50;99.90
47168;DHT22;32931;47.778;17.806;2023-05-29T08:10:44;21.50;99.90
47168;DHT22;32931;47.778;17.806;2023-05-29T08:13:11;21.60;99.90
47168;DHT22;32931;47.778;17.806;2023-05-29T08:15:37;21.70;99.50
47168;DHT22;32931;47.778;17.806;2023-05-29T08:18:03;21.70;99.30
47168;DHT22;32931;47.778;17.806;2023-05-29T08:20:29;21.90;99.10
47168;DHT22;32931;47.778;17.806;2023-05-29T08:22:55;21.90;99.30
47168;DHT22;32931;47.778;17.806;2023-05-29T08:25:21;21.90;98.80
47168;DHT22;32931;47.778;17.806;2023-05-29T08:27:47;22.00;98.70
47168;DHT22;32931;47.778;17.806;2023-05-29T08:30:14;22.00;98.10
47168;DHT22;32931;47.778;17.806;2023-05-29T08:32:40;22.10;98.10
47168;DHT22;32931;47.778;17.806;2023-05-29T08:35:06;22.10;98.30
47168;DHT22;32931;47.778;17.806;2023-05-29T08:37:32;22.20;97.80
47168;DHT22;32931;47.778;17.806;2023-05-29T08:39:58;22.30;98.10
47168;DHT22;32931;47.778;17.806;2023-05-29T08:42:33;22.40;98.00
47168;DHT22;32931;47.778;17.806;2023-05-29T08:45:03;22.40;97.40
47168;DHT22;32931;47.778;17.806;2023-05-29T08:47:33;22.50;97.90
47168;DHT22;32931;47.778;17.806;2023-05-29T08:50:00;22.50;97.40
47168;DHT22;32931;47.778;17.806;2023-05-29T08:52:30;22.50;97.30
47168;DHT22;32931;47.778;17.806;2023-05-29T08:54:58;22.70;97.10
47168;DHT22;32931;47.778;17.806;2023-05-29T08:57:29;22.70;97.90
47168;DHT22;32931;47.778;17.806;2023-05-29T08:59:56;22.80;97.20
47168;DHT22;32931;47.778;17.806;2023-05-29T09:02:22;23.00;97.10
47168;DHT22;32931;47.778;17.806;2023-05-29T09:04:49;23.00;95.90
47168;DHT22;32931;47.778;17.806;2023-05-29T09:07:16;23.10;96.30
47168;DHT22;32931;47.778;17.806;2023-05-29T09:09:43;23.10;96.50
47168;DHT22;32931;47.778;17.806;2023-05-29T09:12:09;23.20;97.00
47168;DHT22;32931;47.778;17.806;2023-05-29T09:14:37;23.30;96.30
47168;DHT22;32931;47.778;17.806;2023-05-29T09:17:04;23.40;95.70
47168;DHT22;32931;47.778;17.806;2023-05-29T09:19:31;23.40;95.50
47168;DHT22;32931;47.778;17.806;2023-05-29T09:22:12;23.50;95.10
47168;DHT22;32931;47.778;17.806;2023-05-29T09:24:42;23.60;94.10
47168;DHT22;32931;47.778;17.806;2023-05-29T09:27:09;23.60;94.70
47168;DHT22;32931;47.778;17.806;2023-05-29T09:29:40;23.80;94.80
47168;DHT22;32931;47.778;17.806;2023-05-29T09:32:08;23.80;95.00
47168;DHT22;32931;47.778;17.806;2023-05-29T09:34:35;23.90;94.40
47168;DHT22;32931;47.778;17.806;2023-05-29T09:37:06;24.00;94.50
47168;DHT22;32931;47.778;17.806;2023-05-29T09:42:09;24.20;94.00
47168;DHT22;32931;47.778;17.806;2023-05-29T09:44:35;24.20;93.60
47168;DHT22;32931;47.778;17.806;2023-05-29T09:47:01;24.20;93.70
47168;DHT22;32931;47.778;17.806;2023-05-29T09:49:28;24.30;93.90
47168;DHT22;32931;47.778;17.806;2023-05-29T09:51:55;24.40;93.60
47168;DHT22;32931;47.778;17.806;2023-05-29T09:54:22;24.50;93.40
47168;DHT22;32931;47.778;17.806;2023-05-29T09:56:49;24.60;93.20
47168;DHT22;32931;47.778;17.806;2023-05-29T09:59:16;24.60;92.90
47168;DHT22;32931;47.778;17.806;2023-05-29T10:01:44;24.70;92.80
47168;DHT22;32931;47.778;17.806;2023-05-29T10:04:11;24.70;92.60
47168;DHT22;32931;47.778;17.806;2023-05-29T10:06:56;24.70;92.60
47168;DHT22;32931;47.778;17.806;2023-05-29T10:09:24;24.90;91.90
47168;DHT22;32931;47.778;17.806;2023-05-29T10:11:52;24.80;92.40
47168;DHT22;32931;47.778;17.806;2023-05-29T10:14:22;24.90;92.00
47168;DHT22;32931;47.778;17.806;2023-05-29T10:16:49;24.90;91.60
47168;DHT22;32931;47.778;17.806;2023-05-29T10:19:21;25.10;91.60
47168;DHT22;32931;47.778;17.806;2023-05-29T10:21:49;25.20;91.80
47168;DHT22;32931;47.778;17.806;2023-05-29T10:24:17;25.10;91.60
47168;DHT22;32931;47.778;17.806;2023-05-29T10:26:47;25.20;91.60
47168;DHT22;32931;47.778;17.806;2023-05-29T10:40:07;25.50;91.90
47168;DHT22;32931;47.778;17.806;2023-05-29T10:42:49;25.60;91.90
47168;DHT22;32931;47.778;17.806;2023-05-29T10:50:38;25.70;91.20
47168;DHT22;32931;47.778;17.806;2023-05-29T10:53:08;25.70;90.70
47168;DHT22;32931;47.778;17.806;2023-05-29T10:55:37;25.70;89.30
47168;DHT22;32931;47.778;17.806;2023-05-29T11:00:33;26.00;89.40
47168;DHT22;32931;47.778;17.806;2023-05-29T11:03:03;26.00;88.20
47168;DHT22;32931;47.778;17.806;2023-05-29T11:05:29;26.00;87.70
47168;DHT22;32931;47.778;17.806;2023-05-29T11:07:56;26.10;86.60
47168;DHT22;32931;47.778;17.806;2023-05-29T11:10:55;26.10;86.00
47168;DHT22;32931;47.778;17.806;2023-05-29T11:16:10;26.10;87.10
47168;DHT22;32931;47.778;17.806;2023-05-29T11:18:45;26.20;84.10
47168;DHT22;32931;47.778;17.806;2023-05-29T11:24:25;26.50;85.10
47168;DHT22;32931;47.778;17.806;2023-05-29T11:26:53;26.60;85.50
47168;DHT22;32931;47.778;17.806;2023-05-29T11:29:27;26.70;84.80
47168;DHT22;32931;47.778;17.806;2023-05-29T11:31:58;26.70;83.10
47168;DHT22;32931;47.778;17.806;2023-05-29T11:34:30;26.80;84.20
47168;DHT22;32931;47.778;17.806;2023-05-29T11:37:01;26.80;83.40
47168;DHT22;32931;47.778;17.806;2023-05-29T11:39:27;26.90;80.40
47168;DHT22;32931;47.778;17.806;2023-05-29T11:41:55;26.90;81.80
47168;DHT22;32931;47.778;17.806;2023-05-29T11:44:24;27.00;83.50
47168;DHT22;32931;47.778;17.806;2023-05-29T11:47:04;27.20;84.00
47168;DHT22;32931;47.778;17.806;2023-05-29T11:49:32;27.40;83.80
47168;DHT22;32931;47.778;17.806;2023-05-29T11:54:33;27.70;82.90
47168;DHT22;32931;47.778;17.806;2023-05-29T11:57:00;27.70;80.60
47168;DHT22;32931;47.778;17.806;2023-05-29T11:59:31;27.70;79.60
47168;DHT22;32931;47.778;17.806;2023-05-29T12:02:01;27.80;78.50
47168;DHT22;32931;47.778;17.806;2023-05-29T12:04:28;28.00;77.60
47168;DHT22;32931;47.778;17.806;2023-05-29T12:06:54;28.00;77.90
47168;DHT22;32931;47.778;17.806;2023-05-29T12:09:25;28.20;75.40
47168;DHT22;32931;47.778;17.806;2023-05-29T12:11:52;28.30;72.50
47168;DHT22;32931;47.778;17.806;2023-05-29T12:14:18;28.30;75.80
47168;DHT22;32931;47.778;17.806;2023-05-29T12:16:44;28.40;77.50
47168;DHT22;32931;47.778;17.806;2023-05-29T12:19:10;28.50;77.00
47168;DHT22;32931;47.778;17.806;2023-05-29T12:21:41;28.70;77.20
47168;DHT22;32931;47.778;17.806;2023-05-29T12:24:09;28.80;76.30
47168;DHT22;32931;47.778;17.806;2023-05-29T12:26:35;28.90;75.40
47168;DHT22;32931;47.778;17.806;2023-05-29T12:29:03;29.00;73.90
47168;DHT22;32931;47.778;17.806;2023-05-29T12:31:31;29.00;72.70
47168;DHT22;32931;47.778;17.806;2023-05-29T12:34:01;29.10;73.00
47168;DHT22;32931;47.778;17.806;2023-05-29T12:36:28;29.10;71.50
47168;DHT22;32931;47.778;17.806;2023-05-29T12:38:54;29.30;72.00
47168;DHT22;32931;47.778;17.806;2023-05-29T12:41:28;29.40;70.90
47168;DHT22;32931;47.778;17.806;2023-05-29T12:43:56;29.40;70.70
47168;DHT22;32931;47.778;17.806;2023-05-29T12:46:26;29.60;71.30
47168;DHT22;32931;47.778;17.806;2023-05-29T12:48:56;29.70;69.00
47168;DHT22;32931;47.778;17.806;2023-05-29T12:51:26;29.80;70.70
47168;DHT22;32931;47.778;17.806;2023-05-29T12:53:52;30.10;69.90
47168;DHT22;32931;47.778;17.806;2023-05-29T12:56:24;30.40;69.10
47168;DHT22;32931;47.778;17.806;2023-05-29T12:58:52;30.80;69.70
47168;DHT22;32931;47.778;17.806;2023-05-29T13:01:18;30.90;69.20
47168;DHT22;32931;47.778;17.806;2023-05-29T13:03:44;31.00;68.20
47168;DHT22;32931;47.778;17.806;2023-05-29T13:06:11;30.80;67.50
47168;DHT22;32931;47.778;17.806;2023-05-29T13:08:37;31.00;67.00
47168;DHT22;32931;47.778;17.806;2023-05-29T13:11:03;31.10;67.40
47168;DHT22;32931;47.778;17.806;2023-05-29T13:13:29;31.30;66.90
47168;DHT22;32931;47.778;17.806;2023-05-29T13:15:56;31.40;65.70
47168;DHT22;32931;47.778;17.806;2023-05-29T13:18:22;31.30;65.80
47168;DHT22;32931;47.778;17.806;2023-05-29T13:20:48;31.20;65.50
47168;DHT22;32931;47.778;17.806;2023-05-29T13:23:14;31.10;65.70
47168;DHT22;32931;47.778;17.806;2023-05-29T13:25:40;31.00;65.30
47168;DHT22;32931;47.778;17.806;2023-05-29T13:28:07;31.00;65.70
47168;DHT22;32931;47.778;17.806;2023-05-29T13:30:33;31.10;65.50
47168;DHT22;32931;47.778;17.806;2023-05-29T13:32:59;31.20;66.20
47168;DHT22;32931;47.778;17.806;2023-05-29T13:35:25;31.30;66.00
47168;DHT22;32931;47.778;17.806;2023-05-29T13:37:51;31.40;64.90
47168;DHT22;32931;47.778;17.806;2023-05-29T13:40:17;31.50;64.30
47168;DHT22;32931;47.778;17.806;2023-05-29T13:42:43;31.60;64.50
47168;DHT22;32931;47.778;17.806;2023-05-29T13:45:09;31.50;65.10
47168;DHT22;32931;47.778;17.806;2023-05-29T13:47:37;31.40;64.30
47168;DHT22;32931;47.778;17.806;2023-05-29T13:50:04;31.50;64.20
47168;DHT22;32931;47.778;17.806;2023-05-29T13:52:31;31.70;65.00
47168;DHT22;32931;47.778;17.806;2023-05-29T13:54:57;31.80;62.20
47168;DHT22;32931;47.778;17.806;2023-05-29T13:57:26;32.00;62.50
47168;DHT22;32931;47.778;17.806;2023-05-29T13:59:52;32.20;62.30
47168;DHT22;32931;47.778;17.806;2023-05-29T14:02:18;32.30;61.30
47168;DHT22;32931;47.778;17.806;2023-05-29T14:04:44;32.60;62.60
47168;DHT22;32931;47.778;17.806;2023-05-29T14:07:10;32.90;62.50
47168;DHT22;32931;47.778;17.806;2023-05-29T14:09:36;32.80;60.40
47168;DHT22;32931;47.778;17.806;2023-05-29T14:12:02;32.60;60.00
47168;DHT22;32931;47.778;17.806;2023-05-29T14:14:29;32.60;61.60
47168;DHT22;32931;47.778;17.806;2023-05-29T14:16:55;32.70;60.30
47168;DHT22;32931;47.778;17.806;2023-05-29T14:19:22;32.80;60.10
47168;DHT22;32931;47.778;17.806;2023-05-29T14:21:49;32.90;59.60
47168;DHT22;32931;47.778;17.806;2023-05-29T14:24:15;32.90;60.20
47168;DHT22;32931;47.778;17.806;2023-05-29T14:26:44;33.00;61.10
47168;DHT22;32931;47.778;17.806;2023-05-29T14:29:13;33.10;61.00
47168;DHT22;32931;47.778;17.806;2023-05-29T14:31:41;33.20;61.00
47168;DHT22;32931;47.778;17.806;2023-05-29T14:34:07;33.40;60.70
47168;DHT22;32931;47.778;17.806;2023-05-29T14:36:33;33.60;59.70
47168;DHT22;32931;47.778;17.806;2023-05-29T14:38:59;33.60;58.40
47168;DHT22;32931;47.778;17.806;2023-05-29T14:41:26;33.70;58.40
47168;DHT22;32931;47.778;17.806;2023-05-29T14:43:52;33.70;58.10
47168;DHT22;32931;47.778;17.806;2023-05-29T14:46:18;33.70;57.80
47168;DHT22;32931;47.778;17.806;2023-05-29T14:48:44;33.70;58.80
47168;DHT22;32931;47.778;17.806;2023-05-29T14:51:13;33.80;59.00
47168;DHT22;32931;47.778;17.806;2023-05-29T14:53:39;33.80;57.80
47168;DHT22;32931;47.778;17.806;2023-05-29T14:56:05;33.80;57.30
47168;DHT22;32931;47.778;17.806;2023-05-29T14:58:31;33.70;57.10
47168;DHT22;32931;47.778;17.806;2023-05-29T15:00:57;33.60;57.20
47168;DHT22;32931;47.778;17.806;2023-05-29T15:03:24;33.70;57.50
47168;DHT22;32931;47.778;17.806;2023-05-29T15:05:52;33.60;56.20
47168;DHT22;32931;47.778;17.806;2023-05-29T15:08:20;33.60;55.70
47168;DHT22;32931;47.778;17.806;2023-05-29T15:10:46;33.60;57.50
47168;DHT22;32931;47.778;17.806;2023-05-29T15:13:12;33.60;57.40
47168;DHT22;32931;47.778;17.806;2023-05-29T15:15:38;33.60;57.30
47168;DHT22;32931;47.778;17.806;2023-05-29T15:18:04;33.80;56.20
47168;DHT22;32931;47.778;17.806;2023-05-29T15:20:30;33.90;56.80
47168;DHT22;32931;47.778;17.806;2023-05-29T15:22:56;34.00;55.70
47168;DHT22;32931;47.778;17.806;2023-05-29T15:25:23;34.10;55.50
47168;DHT22;32931;47.778;17.806;2023-05-29T15:27:49;34.20;55.30
47168;DHT22;32931;47.778;17.806;2023-05-29T15:30:17;34.20;55.30
47168;DHT22;32931;47.778;17.806;2023-05-29T15:32:47;34.50;55.10
47168;DHT22;32931;47.778;17.806;2023-05-29T15:35:15;34.60;54.70
47168;DHT22;32931;47.778;17.806;2023-05-29T15:37:44;34.70;54.00
47168;DHT22;32931;47.778;17.806;2023-05-29T15:40:11;35.00;54.70
47168;DHT22;32931;47.778;17.806;2023-05-29T15:42:37;35.20;54.40
47168;DHT22;32931;47.778;17.806;2023-05-29T15:45:04;35.30;54.20
47168;DHT22;32931;47.778;17.806;2023-05-29T15:47:31;35.30;52.50
47168;DHT22;32931;47.778;17.806;2023-05-29T15:49:58;35.40;53.10